Time;durP1;ratioP1;P1;durP2;ratioP2;P2;SDS_P1;SDS_P2;PMS_P1;PMS_P2;Temp;Humidity;BMP_temperature;BMP_pressure;BME280_temperature;BME280_humidity;BME280_pressure;Samples;Min_cycle;Max_cycle;Signal;HPM_P1;HPM_P2
2022/01/28 00:02:31;;;;;;;19.37;9.10;;;;;;;2.25;91.04;99979.47;4482041;31;34596;-81
2022/01/28 00:05:22;;;;;;;23.42;10.02;;;;;;;2.40;90.42;99991.59;4484258;31;34078;-81
2022/01/28 00:08:08;;;;;;;18.85;8.52;;;;;;;2.29;91.39;99989.78;4496482;31;34644;-81
2022/01/28 00:10:55;;;;;;;20.83;10.02;;;;;;;2.11;92.04;100002.50;4484012;31;34951;-81
2022/01/28 00:13:42;;;;;;;20.30;10.25;;;;;;;1.95;92.93;100006.84;4483471;31;34127;-82
2022/01/28 00:38:44;;;;;;;21.73;10.52;;;;;;;1.87;93.04;100001.00;4485992;31;34642;-81
2022/01/28 00:41:31;;;;;;;19.67;11.00;;;;;;;1.85;93.96;100003.13;4489214;31;33806;-82
2022/01/28 00:44:17;;;;;;;21.95;11.12;;;;;;;2.09;92.71;100009.22;4493014;31;34467;-82
2022/01/28 00:47:04;;;;;;;23.20;12.13;;;;;;;1.95;93.71;100008.72;4490004;31;35070;-83
2022/01/28 00:49:50;;;;;;;21.90;11.70;;;;;;;1.86;93.96;100010.19;4495128;31;35633;-82
2022/01/28 00:52:37;;;;;;;21.83;11.07;;;;;;;2.04;94.16;100012.66;4497883;31;34123;-81
2022/01/28 00:55:23;;;;;;;23.85;10.93;;;;;;;2.17;92.46;100000.69;4491598;31;34627;-83
2022/01/28 00:58:09;;;;;;;24.92;12.50;;;;;;;1.85;94.32;99986.91;4476009;31;36003;-82
2022/01/28 01:00:55;;;;;;;22.87;10.63;;;;;;;1.77;94.91;99991.69;4484574;31;34528;-82
2022/01/28 01:03:42;;;;;;;21.45;10.15;;;;;;;2.05;94.04;99981.03;4465042;31;34214;-82
2022/01/28 01:06:28;;;;;;;23.70;12.93;;;;;;;2.02;93.65;99987.75;4495944;31;35444;-83
2022/01/28 01:09:15;;;;;;;19.83;9.30;;;;;;;1.93;93.43;99973.81;4489913;31;35039;-82
2022/01/28 01:12:02;;;;;;;21.12;10.98;;;;;;;2.05;93.28;99981.88;4477913;31;34625;-83
2022/01/28 01:14:49;;;;;;;23.15;9.40;;;;;;;2.01;92.95;99980.72;4474575;31;34221;-82
2022/01/28 01:17:40;;;;;;;18.87;10.68;;;;;;;2.28;92.30;99978.16;4496057;31;34670;-84
2022/01/28 01:23:22;;;;;;;19.23;9.48;;;;;;;2.03;93.17;99973.19;4496006;31;34620;-82
2022/01/28 01:26:11;;;;;;;21.42;10.15;;;;;;;2.12;92.20;99960.06;4489324;31;34176;-81
2022/01/28 01:28:58;;;;;;;23.12;10.35;;;;;;;2.17;92.50;99960.16;4489085;31;34527;-81
2022/01/28 01:31:45;;;;;;;22.52;9.55;;;;;;;2.11;92.53;99961.97;4486494;31;35192;-81
2022/01/28 01:34:31;;;;;;;21.58;10.45;;;;;;;2.14;92.66;99964.16;4470184;31;34198;-81
2022/01/28 01:37:17;;;;;;;21.45;9.95;;;;;;;2.17;92.61;99973.66;4487702;31;34118;-81
2022/01/28 01:40:05;;;;;;;18.62;9.35;;;;;;;2.05;93.31;99975.63;4484236;31;35520;-81
2022/01/28 01:43:04;;;;;;;22.33;10.40;;;;;;;2.07;93.45;99963.50;4497975;31;36059;-81
2022/01/28 01:46:36;;;;;;;22.77;11.60;;;;;;;1.91;94.06;99956.25;4482443;31;34636;-82
2022/01/28 01:52:26;;;;;;;18.37;8.25;;;;;;;1.92;93.66;99952.47;4462028;31;34009;-82
2022/01/28 01:55:13;;;;;;;20.17;8.70;;;;;;;1.95;93.77;99938.47;4486154;31;35037;-82
2022/01/28 01:57:59;;;;;;;18.12;8.10;;;;;;;2.03;92.77;99952.38;4483056;31;35403;-82
2022/01/28 02:00:46;;;;;;;18.35;8.70;;;;;;;2.09;92.83;99955.97;4492630;31;35135;-82
2022/01/28 02:03:32;;;;;;;18.50;7.95;;;;;;;2.21;92.18;99947.75;4483035;31;34551;-82
2022/01/28 02:06:19;;;;;;;19.62;9.25;;;;;;;2.35;91.86;99956.34;4483911;31;35857;-82
2022/01/28 02:09:06;;;;;;;19.55;8.10;;;;;;;2.13;92.83;99950.88;4484733;31;34761;-81
2022/01/28 02:11:53;;;;;;;17.62;8.20;;;;;;;2.62;90.49;99945.63;4478073;31;34328;-81
2022/01/28 02:14:39;;;;;;;15.95;7.03;;;;;;;2.56;89.99;99943.91;4485823;31;34570;-81
2022/01/28 02:17:26;;;;;;;15.65;7.72;;;;;;;2.44;90.54;99947.53;4466610;31;35519;-82
2022/01/28 02:20:35;;;;;;;15.60;7.32;;;;;;;2.34;90.81;99942.00;4483317;31;35354;-82
2022/01/28 02:23:22;;;;;;;16.70;7.70;;;;;;;2.37;90.47;99946.09;4482365;31;32795;-82
2022/01/28 02:26:15;;;;;;;17.33;7.40;;;;;;;2.40;89.99;99949.13;4476574;31;35499;-81
2022/01/28 02:29:08;;;;;;;18.27;9.00;;;;;;;2.46;89.93;99944.59;4484407;31;34924;-81
2022/01/28 02:31:56;;;;;;;13.07;6.30;;;;;;;2.12;91.50;99947.37;4465451;31;35417;-82
2022/01/28 02:34:43;;;;;;;13.13;6.85;;;;;;;2.14;91.39;99945.25;4497535;31;35186;-82
2022/01/28 02:37:29;;;;;;;15.07;6.47;;;;;;;2.31;90.32;99958.75;4475923;31;34077;-81
2022/01/28 02:40:15;;;;;;;12.45;5.97;;;;;;;2.54;89.97;99946.88;4480032;31;35805;-82
2022/01/28 02:43:24;;;;;;;13.10;6.53;;;;;;;2.27;90.43;99954.06;4479984;31;34393;-81
2022/01/28 02:46:14;;;;;;;13.70;6.37;;;;;;;2.13;91.22;99946.28;4486633;31;35907;-82
2022/01/28 02:49:05;;;;;;;13.77;6.97;;;;;;;2.41;90.12;99952.63;4474657;31;35399;-80
2022/01/28 02:51:53;;;;;;;11.25;6.03;;;;;;;2.14;90.88;99956.06;4479834;31;34810;-84
2022/01/28 02:54:45;;;;;;;11.23;6.28;;;;;;;2.30;90.09;99961.69;4483750;31;34589;-82
2022/01/28 02:57:34;;;;;;;11.15;6.00;;;;;;;2.33;89.47;99953.88;4489826;31;34321;-82
2022/01/28 03:00:20;;;;;;;11.57;5.45;;;;;;;2.38;89.14;99948.53;4481008;31;33147;-81
2022/01/28 03:03:07;;;;;;;9.55;4.60;;;;;;;2.38;89.28;99953.13;4476657;31;34507;-84
2022/01/28 03:05:54;;;;;;;7.30;3.95;;;;;;;2.43;88.67;99964.84;4460734;31;34517;-83
2022/01/28 03:08:50;;;;;;;7.85;3.65;;;;;;;2.54;88.33;99967.72;4477229;31;35106;-82
2022/01/28 03:11:57;;;;;;;9.13;3.90;;;;;;;2.62;87.57;99968.09;4480925;31;35105;-82
2022/01/28 03:18:06;;;;;;;6.93;3.72;;;;;;;2.85;86.10;99958.09;4481668;31;34724;-81
2022/01/28 03:23:39;;;;;;;7.32;3.80;;;;;;;2.91;85.71;99967.91;4484254;31;34422;-84
2022/01/28 03:26:28;;;;;;;6.93;3.40;;;;;;;2.92;85.67;99969.53;4482753;31;35019;-87
2022/01/28 03:29:16;;;;;;;6.15;3.00;;;;;;;2.99;85.38;99972.03;4475611;31;34971;-81
2022/01/28 03:32:03;;;;;;;6.43;3.30;;;;;;;3.01;85.49;99978.84;4484317;31;34090;-83
2022/01/28 03:34:49;;;;;;;5.43;3.20;;;;;;;2.99;85.70;99970.19;4483170;31;34567;-85
2022/01/28 03:37:37;;;;;;;5.60;3.08;;;;;;;3.01;85.37;99967.19;4479775;31;34695;-84
2022/01/28 03:40:23;;;;;;;5.43;2.65;;;;;;;3.01;85.38;99973.44;4491109;31;34800;-81
2022/01/28 03:43:10;;;;;;;5.15;2.85;;;;;;;3.04;85.35;99983.75;4484475;31;35010;-81
2022/01/28 03:45:56;;;;;;;5.22;3.10;;;;;;;3.10;84.78;99969.22;4485759;31;35089;-83
2022/01/28 03:48:44;;;;;;;4.82;2.70;;;;;;;3.11;84.58;99980.88;4479670;31;35029;-83
2022/01/28 03:51:30;;;;;;;6.00;3.10;;;;;;;3.15;84.38;99971.97;4487693;31;35465;-80
2022/01/28 03:54:16;;;;;;;7.22;3.12;;;;;;;3.18;83.90;99986.88;4481695;31;34915;-82
2022/01/28 03:57:04;;;;;;;5.65;2.70;;;;;;;3.23;83.79;99989.66;4484242;31;35493;-83
2022/01/28 03:59:50;;;;;;;5.10;2.80;;;;;;;3.20;83.80;100005.59;4482342;31;37842;-82
2022/01/28 04:02:41;;;;;;;5.10;2.37;;;;;;;3.15;84.42;100000.94;4485571;31;35002;-80
2022/01/28 04:11:29;;;;;;;4.35;2.25;;;;;;;3.34;82.56;99988.69;4496695;31;35019;-83
2022/01/28 04:14:26;;;;;;;3.95;2.37;;;;;;;3.38;82.00;99994.41;4488200;31;34709;-84
2022/01/28 04:17:20;;;;;;;6.12;2.30;;;;;;;3.37;81.69;100003.63;4485522;31;35036;-83
2022/01/28 04:20:06;;;;;;;4.12;2.72;;;;;;;3.52;80.16;100001.06;4482567;31;34161;-81
2022/01/28 04:22:53;;;;;;;3.92;2.30;;;;;;;3.58;78.71;100004.66;4480097;31;34863;-82
2022/01/28 04:25:39;;;;;;;4.55;2.00;;;;;;;3.62;78.38;99999.56;4483626;31;34549;-83
2022/01/28 04:28:26;;;;;;;3.35;1.92;;;;;;;3.64;79.00;99991.97;4497662;31;34375;-82
2022/01/28 04:31:12;;;;;;;4.43;2.15;;;;;;;3.42;79.41;99982.03;4460574;31;34631;-83
2022/01/28 04:34:01;;;;;;;4.37;2.33;;;;;;;3.36;79.59;99985.75;4482915;31;34580;-83
2022/01/28 04:37:01;;;;;;;4.12;2.17;;;;;;;3.28;80.10;99983.50;4495110;31;35543;-83
2022/01/28 04:43:01;;;;;;;3.20;1.90;;;;;;;3.26;79.00;99993.75;4493684;31;34686;-84
2022/01/28 04:48:45;;;;;;;5.28;2.33;;;;;;;3.17;79.37;99974.44;4484321;31;34607;-85
2022/01/28 04:55:38;;;;;;;2.65;1.48;;;;;;;2.93;80.83;99982.00;4488926;31;35144;-80
2022/01/28 04:58:06;;;;;;;3.85;2.00;;;;;;;3.00;80.87;99981.81;4476398;31;35958;-80
2022/01/28 05:27:48;;;;;;;2.35;1.42;;;;;;;2.92;79.62;100002.00;4489018;31;34232;-80
2022/01/28 05:30:34;;;;;;;2.28;1.30;;;;;;;2.86;79.62;99992.19;4480549;31;34660;-82
2022/01/28 05:33:21;;;;;;;2.75;1.50;;;;;;;2.92;79.02;99988.47;4482295;31;35167;-81
2022/01/28 05:36:07;;;;;;;5.32;1.50;;;;;;;2.99;78.54;99986.41;4479908;31;34895;-85
2022/01/28 05:38:53;;;;;;;3.50;1.40;;;;;;;3.04;77.99;99999.19;4476099;31;35303;-80
2022/01/28 05:41:41;;;;;;;2.05;1.27;;;;;;;3.17;77.17;99998.00;4466687;31;34625;-80
2022/01/28 05:44:27;;;;;;;2.37;1.12;;;;;;;3.19;77.19;99968.75;4477630;31;34642;-83
2022/01/28 05:47:15;;;;;;;2.97;1.60;;;;;;;3.21;77.04;100002.63;4492711;31;35467;-81
2022/01/28 05:50:04;;;;;;;4.72;2.78;;;;;;;3.19;77.00;99968.75;4485469;31;34090;-81
2022/01/28 05:52:50;;;;;;;2.20;1.20;;;;;;;3.24;76.84;99985.87;4482836;31;34603;-80
2022/01/28 05:55:37;;;;;;;3.22;1.20;;;;;;;3.40;76.31;99991.47;4480282;31;34834;-84
2022/01/28 05:58:23;;;;;;;2.28;1.52;;;;;;;3.30;76.91;100019.25;4472546;31;34940;-82
2022/01/28 06:01:10;;;;;;;3.08;1.35;;;;;;;3.35;76.70;99995.75;4471626;31;34263;-80
2022/01/28 06:03:57;;;;;;;5.55;2.08;;;;;;;3.45;76.48;100005.88;4477168;31;34647;-83
2022/01/28 06:06:43;;;;;;;3.85;1.80;;;;;;;3.44;76.78;100035.94;4471376;31;34895;-82
2022/01/28 06:09:30;;;;;;;4.53;1.83;;;;;;;3.48;76.71;100032.47;4468113;31;34633;-82
2022/01/28 06:12:16;;;;;;;2.58;1.35;;;;;;;3.47;76.77;100040.84;4492108;31;34130;-80
2022/01/28 06:15:04;;;;;;;2.35;1.08;;;;;;;3.52;76.34;100011.91;4477808;31;34675;-80
2022/01/28 06:17:50;;;;;;;3.00;1.27;;;;;;;3.52;76.67;100030.87;4476295;31;34964;-80
2022/01/28 06:20:36;;;;;;;6.03;1.37;;;;;;;3.48;76.97;100032.47;4485142;31;34222;-82
2022/01/28 06:23:27;;;;;;;2.47;1.15;;;;;;;3.48;76.83;100040.59;4468119;31;35364;-81
2022/01/28 06:26:14;;;;;;;3.12;1.30;;;;;;;3.44;76.94;100053.00;4457560;31;35601;-82
2022/01/28 06:29:00;;;;;;;3.37;1.45;;;;;;;3.37;77.11;100041.53;4478577;31;35208;-81
2022/01/28 06:31:47;;;;;;;2.70;1.45;;;;;;;3.52;76.65;100051.72;4465833;31;34883;-81
2022/01/28 06:34:33;;;;;;;2.92;1.50;;;;;;;3.39;76.31;100052.97;4479031;31;34352;-81
2022/01/28 06:37:20;;;;;;;2.87;1.65;;;;;;;3.36;76.14;100050.75;4494143;31;34984;-80
2022/01/28 06:40:08;;;;;;;2.60;0.82;;;;;;;3.35;75.85;100059.94;4471382;31;34602;-83
2022/01/28 06:42:55;;;;;;;1.60;1.00;;;;;;;3.41;75.20;100056.22;4470883;31;34652;-81
2022/01/28 06:45:43;;;;;;;1.75;1.20;;;;;;;3.53;73.73;100062.34;4486016;31;33783;-81
2022/01/28 06:48:29;;;;;;;2.97;1.27;;;;;;;3.41;74.32;100058.09;4472047;31;34547;-82
2022/01/28 06:51:16;;;;;;;3.25;1.27;;;;;;;3.40;74.31;100068.13;4491118;31;36045;-80
2022/01/28 06:54:03;;;;;;;1.85;1.20;;;;;;;3.52;73.92;100063.38;4468045;31;35130;-81
2022/01/28 06:56:49;;;;;;;3.05;1.33;;;;;;;3.45;73.88;100092.56;4471132;31;35037;-82
2022/01/28 06:59:36;;;;;;;2.83;1.20;;;;;;;3.52;72.44;100095.06;4497670;31;35152;-81
2022/01/28 07:02:22;;;;;;;2.65;1.20;;;;;;;3.71;71.64;100103.72;4495810;31;35906;-80
2022/01/28 07:05:10;;;;;;;2.53;1.10;;;;;;;3.58;72.21;100108.44;4478807;31;34494;-81
2022/01/28 07:07:56;;;;;;;3.05;1.10;;;;;;;3.60;72.22;100106.28;4489488;31;34203;-81
2022/01/28 07:10:42;;;;;;;2.92;1.30;;;;;;;3.55;73.16;100111.63;4480621;31;34758;-81
2022/01/28 07:13:28;;;;;;;2.40;1.23;;;;;;;3.54;73.22;100110.00;4483234;31;34927;-80
2022/01/28 07:16:14;;;;;;;5.00;1.75;;;;;;;3.50;73.72;100127.88;4472224;31;35454;-80
2022/01/28 07:19:02;;;;;;;1.85;1.08;;;;;;;3.56;73.34;100117.91;4479626;31;34700;-81
2022/01/28 07:21:49;;;;;;;2.78;0.88;;;;;;;3.56;73.27;100126.84;4483334;31;34874;-78
2022/01/28 07:24:35;;;;;;;2.28;1.10;;;;;;;3.68;73.12;100109.62;4476920;31;35138;-81
2022/01/28 07:27:22;;;;;;;3.53;1.00;;;;;;;3.62;72.93;100091.69;4490942;31;34800;-78
2022/01/28 07:30:09;;;;;;;2.17;1.08;;;;;;;3.58;72.57;100105.72;4481823;31;34263;-82
2022/01/28 07:32:56;;;;;;;2.80;1.08;;;;;;;3.64;72.18;100090.34;4481913;31;35995;-83
2022/01/28 07:35:42;;;;;;;3.85;1.37;;;;;;;3.70;70.57;100091.22;4491787;31;35072;-81
2022/01/28 07:38:28;;;;;;;1.83;0.93;;;;;;;3.72;69.40;100091.78;4480776;31;34530;-81
2022/01/28 07:41:14;;;;;;;1.65;0.82;;;;;;;3.88;68.01;100092.78;4489200;31;35009;-80
2022/01/28 07:44:01;;;;;;;1.70;0.70;;;;;;;3.89;68.26;100124.22;4476997;31;34160;-81
2022/01/28 07:46:47;;;;;;;2.20;0.80;;;;;;;3.95;67.62;100128.63;4474313;31;34601;-83
2022/01/28 07:49:34;;;;;;;3.37;1.00;;;;;;;3.94;66.58;100132.41;4491567;31;35154;-81
2022/01/28 07:52:21;;;;;;;2.53;0.90;;;;;;;4.08;66.49;100135.53;4481375;31;34823;-80
2022/01/28 07:55:13;;;;;;;2.22;1.12;;;;;;;4.15;66.13;100136.16;4473983;31;34631;-80
2022/01/28 07:57:59;;;;;;;2.45;1.05;;;;;;;4.22;65.29;100115.06;4470472;31;35151;-83
2022/01/28 08:00:45;;;;;;;0.93;0.50;;;;;;;4.13;64.04;100141.84;4496809;31;35491;-79
2022/01/28 08:03:32;;;;;;;1.45;0.88;;;;;;;4.23;63.00;100133.78;4492569;31;34198;-83
2022/01/28 08:06:18;;;;;;;1.92;0.65;;;;;;;4.31;63.05;100140.66;4478127;31;32633;-79
2022/01/28 08:09:05;;;;;;;1.48;0.70;;;;;;;4.27;63.08;100125.97;4471507;31;35028;-81
2022/01/28 08:11:51;;;;;;;2.15;0.82;;;;;;;4.24;63.19;100112.91;4474120;31;35479;-81
2022/01/28 08:14:38;;;;;;;2.08;0.70;;;;;;;4.45;62.54;100117.44;4496682;31;34217;-79
2022/01/28 08:17:24;;;;;;;1.65;0.65;;;;;;;4.42;62.74;100134.25;4498525;31;35437;-80
2022/01/28 08:20:11;;;;;;;2.15;0.65;;;;;;;4.49;61.80;100140.25;4469129;31;35956;-80
2022/01/28 08:22:58;;;;;;;1.92;0.68;;;;;;;4.64;60.81;100136.03;4480237;31;34875;-80
2022/01/28 08:25:51;;;;;;;2.20;0.55;;;;;;;4.65;59.87;100159.41;4485637;31;34051;-81
2022/01/28 08:28:41;;;;;;;2.53;0.57;;;;;;;4.77;58.17;100149.16;4496142;31;35261;-82
2022/01/28 08:31:28;;;;;;;1.60;0.43;;;;;;;4.72;57.92;100160.81;4486729;31;34993;-84
2022/01/28 08:34:14;;;;;;;2.25;0.60;;;;;;;4.70;56.20;100173.84;4473974;31;34516;-81
2022/01/28 08:37:03;;;;;;;1.17;0.60;;;;;;;4.98;56.32;100152.87;4484337;31;93023;-83
2022/01/28 08:39:50;;;;;;;3.12;0.70;;;;;;;4.90;56.16;100150.62;4486002;31;35573;-79
2022/01/28 08:42:36;;;;;;;4.20;1.02;;;;;;;5.18;56.54;100163.03;4487447;31;35531;-79
2022/01/28 08:45:23;;;;;;;3.30;0.30;;;;;;;4.92;56.04;100149.31;4484910;31;35396;-80
2022/01/28 08:48:09;;;;;;;3.50;0.80;;;;;;;4.97;55.57;100145.78;4484814;31;34150;-84
2022/01/28 08:50:55;;;;;;;1.35;0.50;;;;;;;4.97;55.41;100132.19;4488930;31;33531;-84
2022/01/28 08:53:42;;;;;;;4.15;1.05;;;;;;;4.81;55.12;100141.31;4483367;31;35911;-82
2022/01/28 08:56:28;;;;;;;2.95;0.60;;;;;;;4.86;55.53;100146.78;4480913;31;34718;-81
2022/01/28 08:59:15;;;;;;;4.03;0.55;;;;;;;4.73;55.98;100138.03;4486007;31;35149;-78
2022/01/28 09:02:01;;;;;;;1.75;0.52;;;;;;;5.11;54.83;100138.00;4495945;31;34138;-79
2022/01/28 09:04:49;;;;;;;1.10;0.60;;;;;;;5.07;55.15;100136.91;4480255;31;34917;-80
2022/01/28 09:07:35;;;;;;;2.08;0.50;;;;;;;5.19;55.18;100132.06;4485985;31;34513;-81
2022/01/28 09:10:29;;;;;;;2.67;0.32;;;;;;;4.96;56.32;100171.31;4476129;31;34144;-81
2022/01/28 09:13:22;;;;;;;0.85;0.70;;;;;;;5.05;57.04;100139.06;4489994;31;35482;-81
2022/01/28 09:16:10;;;;;;;4.15;0.75;;;;;;;5.03;57.05;100127.63;4484616;31;36009;-84
2022/01/28 09:18:56;;;;;;;0.75;0.30;;;;;;;5.25;57.15;100169.06;4482754;31;34713;-78
2022/01/28 09:21:42;;;;;;;1.17;0.50;;;;;;;5.29;57.12;100161.19;4484286;31;34231;-79
2022/01/28 09:24:29;;;;;;;2.22;0.52;;;;;;;5.22;57.74;100149.75;4495065;31;34655;-77
2022/01/28 09:27:15;;;;;;;2.35;0.60;;;;;;;5.07;57.78;100150.47;4473308;31;34925;-81
2022/01/28 09:30:02;;;;;;;2.30;0.55;;;;;;;5.26;57.21;100181.53;4493860;31;35598;-81
2022/01/28 09:32:49;;;;;;;1.15;0.47;;;;;;;5.22;56.85;100180.44;4494531;31;34198;-84
2022/01/28 09:35:36;;;;;;;1.45;0.40;;;;;;;5.03;56.57;100187.38;4478889;31;34777;-78
2022/01/28 09:38:22;;;;;;;2.35;0.40;;;;;;;5.34;56.12;100172.09;4483125;31;35905;-84
2022/01/28 09:41:09;;;;;;;1.55;0.50;;;;;;;5.08;56.51;100161.06;4487234;31;35435;-78
2022/01/28 09:43:57;;;;;;;3.30;0.73;;;;;;;5.05;56.57;100168.94;4482382;31;35064;-82
2022/01/28 09:46:43;;;;;;;1.58;0.28;;;;;;;5.09;56.49;100186.31;4475656;31;34553;-81
2022/01/28 09:49:31;;;;;;;3.30;0.80;;;;;;;5.23;55.99;100157.62;4486452;31;34927;-83
2022/01/28 09:52:19;;;;;;;3.00;0.55;;;;;;;5.09;54.88;100164.59;4474987;31;35234;-81
2022/01/28 09:55:06;;;;;;;1.73;0.47;;;;;;;5.10;54.41;100166.25;4480138;31;34983;-82
2022/01/28 09:57:55;;;;;;;4.70;1.00;;;;;;;5.23;53.37;100152.19;4463365;31;34538;-84
2022/01/28 10:00:42;;;;;;;2.72;0.57;;;;;;;5.23;53.24;100182.06;4484416;31;35042;-79
2022/01/28 10:03:29;;;;;;;2.30;0.50;;;;;;;5.77;52.49;100181.00;4468386;31;34270;-78
2022/01/28 10:06:29;;;;;;;3.47;0.40;;;;;;;5.33;52.44;100184.88;4492786;31;34111;-79
2022/01/28 10:09:19;;;;;;;3.35;0.75;;;;;;;5.41;52.46;100165.34;4482478;31;34667;-81
2022/01/28 10:12:23;;;;;;;1.33;0.50;;;;;;;5.46;51.16;100175.41;4481463;31;33758;-78
2022/01/28 10:15:29;;;;;;;2.65;0.40;;;;;;;5.71;49.82;100139.38;4482560;31;35760;-82
2022/01/28 10:18:15;;;;;;;8.65;1.67;;;;;;;5.83;50.18;100152.72;4491198;31;35047;-79
2022/01/28 10:21:01;;;;;;;3.15;0.73;;;;;;;6.07;50.13;100166.72;4489160;31;34580;-78
2022/01/28 10:24:07;;;;;;;1.60;0.90;;;;;;;6.03;50.10;100152.00;4479806;31;35150;-80
2022/01/28 10:27:06;;;;;;;4.50;0.62;;;;;;;5.98;49.23;100143.84;4489960;31;34648;-82
2022/01/28 10:29:53;;;;;;;3.05;0.50;;;;;;;5.99;48.80;100162.63;4486655;31;34196;-77
2022/01/28 10:32:39;;;;;;;3.12;0.70;;;;;;;5.99;48.55;100178.12;4483091;31;34630;-82
2022/01/28 10:35:30;;;;;;;7.50;2.00;;;;;;;5.86;48.21;100158.47;4470702;31;33781;-82
2022/01/28 10:38:33;;;;;;;3.55;1.00;;;;;;;5.94;47.17;100124.50;4463277;31;35108;-78
2022/01/28 10:41:21;;;;;;;4.57;0.60;;;;;;;6.00;46.88;100104.38;4498185;31;34174;-79
2022/01/28 10:44:07;;;;;;;0.95;0.40;;;;;;;5.99;47.40;100150.91;4494133;31;34167;-81
2022/01/28 10:47:01;;;;;;;1.80;0.50;;;;;;;6.40;46.46;100107.44;4484919;31;36232;-76
2022/01/28 10:49:49;;;;;;;2.30;0.37;;;;;;;6.11;47.07;100126.19;4482782;31;34637;-79
2022/01/28 10:52:35;;;;;;;4.03;0.60;;;;;;;6.26;47.62;100124.31;4494370;31;34254;-82
2022/01/28 10:55:21;;;;;;;4.65;0.70;;;;;;;6.31;47.86;100132.47;4490246;31;34540;-77
2022/01/28 10:58:09;;;;;;;2.42;0.40;;;;;;;6.27;48.36;100125.94;4468209;31;35006;-78
2022/01/28 11:00:57;;;;;;;3.33;0.50;;;;;;;6.01;48.87;100138.69;4491876;31;34721;-80
2022/01/28 11:03:44;;;;;;;4.05;0.70;;;;;;;5.81;48.99;100133.97;4494820;31;34223;-81
2022/01/28 11:06:30;;;;;;;3.53;0.40;;;;;;;6.07;49.42;100145.78;4482288;31;35118;-82
2022/01/28 11:09:18;;;;;;;1.33;0.40;;;;;;;6.11;50.03;100150.66;4485642;31;34885;-79
2022/01/28 11:12:05;;;;;;;2.08;0.30;;;;;;;6.15;50.66;100139.00;4479672;31;35645;-78
2022/01/28 11:14:51;;;;;;;2.65;0.40;;;;;;;5.94;50.57;100153.63;4478267;31;34831;-79
2022/01/28 11:17:37;;;;;;;1.12;0.40;;;;;;;5.44;52.30;100174.06;4497931;31;34670;-78
2022/01/28 11:20:34;;;;;;;2.62;0.50;;;;;;;5.34;53.33;100170.19;4483293;31;34990;-82
2022/01/28 11:23:37;;;;;;;1.17;0.37;;;;;;;5.25;53.89;100174.47;4485458;31;34626;-81
2022/01/28 11:26:31;;;;;;;2.10;0.40;;;;;;;5.29;54.41;100191.88;4468865;31;35081;-79
2022/01/28 11:29:26;;;;;;;5.47;0.37;;;;;;;5.35;54.29;100195.44;4491968;31;34621;-81
2022/01/28 11:32:14;;;;;;;2.08;0.35;;;;;;;5.25;54.25;100223.37;4484633;31;34933;-80
2022/01/28 11:35:06;;;;;;;1.80;0.65;;;;;;;5.21;53.70;100194.28;4480737;31;34258;-79
2022/01/28 11:37:54;;;;;;;2.65;0.40;;;;;;;5.23;54.06;100198.38;4491564;31;35095;-82
2022/01/28 11:40:49;;;;;;;2.75;0.40;;;;;;;5.23;52.71;100203.81;4482254;31;35635;-79
2022/01/28 11:43:45;;;;;;;3.50;0.68;;;;;;;5.26;52.45;100208.72;4480819;31;36034;-80
2022/01/28 11:46:38;;;;;;;6.95;0.40;;;;;;;5.13;53.75;100198.31;4487309;31;34541;-81
2022/01/28 11:49:24;;;;;;;2.70;0.40;;;;;;;5.30;53.78;100196.25;4468576;31;34976;-81
2022/01/28 11:52:25;;;;;;;6.75;0.73;;;;;;;5.10;54.33;100190.69;4485323;31;34086;-80
2022/01/28 11:55:15;;;;;;;2.40;0.60;;;;;;;5.12;54.69;100183.09;4486063;31;34990;-79
2022/01/28 11:58:04;;;;;;;1.67;0.47;;;;;;;5.08;54.39;100173.84;4491511;31;34501;-79
2022/01/28 12:00:54;;;;;;;4.20;0.88;;;;;;;5.18;54.29;100179.34;4498305;31;34087;-79
2022/01/28 12:03:41;;;;;;;3.35;1.00;;;;;;;4.92;54.99;100181.88;4494475;31;35635;-79
2022/01/28 12:06:30;;;;;;;3.03;0.68;;;;;;;4.90;55.21;100222.06;4483465;31;35961;-80
2022/01/28 12:09:17;;;;;;;2.33;0.50;;;;;;;5.06;55.36;100198.53;4481745;31;34689;-80
2022/01/28 12:12:09;;;;;;;6.72;0.70;;;;;;;5.06;54.85;100189.56;4483594;31;35299;-81
2022/01/28 12:15:09;;;;;;;18.98;9.40;;;;;;;4.91;55.09;100196.53;4479501;31;34205;-80
2022/01/28 12:18:11;;;;;;;22.20;9.32;;;;;;;4.87;55.35;100202.75;4487567;31;34920;-81
2022/01/28 12:20:58;;;;;;;25.10;13.98;;;;;;;4.89;55.70;100216.87;4483547;31;34585;-81
2022/01/28 12:23:44;;;;;;;16.27;5.57;;;;;;;4.77;55.42;100222.47;4486903;31;34213;-79
2022/01/28 12:26:56;;;;;;;5.47;1.65;;;;;;;4.89;55.26;100203.28;4486897;31;34708;-79
2022/01/28 12:29:44;;;;;;;11.25;2.15;;;;;;;4.90;55.31;100205.75;4497650;31;34983;-80
2022/01/28 12:32:31;;;;;;;6.68;1.48;;;;;;;4.85;55.24;100203.00;4489284;31;34294;-80
2022/01/28 12:35:23;;;;;;;3.10;1.10;;;;;;;4.63;56.32;100211.22;4480722;31;35097;-78
2022/01/28 12:38:11;;;;;;;6.72;1.30;;;;;;;4.72;55.65;100234.13;4485306;31;35214;-82
2022/01/28 12:41:05;;;;;;;16.95;1.95;;;;;;;4.70;55.55;100238.16;4495491;31;35689;-80
2022/01/28 12:43:53;;;;;;;9.48;2.00;;;;;;;4.84;55.28;100222.25;4470247;31;35498;-80
2022/01/28 12:46:39;;;;;;;4.43;0.80;;;;;;;4.99;54.75;100230.53;4475883;31;34093;-79
2022/01/28 12:49:28;;;;;;;6.12;1.40;;;;;;;4.75;54.65;100219.19;4476680;31;34661;-82
2022/01/28 12:52:14;;;;;;;15.88;3.85;;;;;;;4.81;54.94;100225.47;4481478;31;35892;-80
2022/01/28 12:55:03;;;;;;;6.50;0.90;;;;;;;4.87;54.92;100232.63;4478906;31;34113;-82
2022/01/28 12:57:49;;;;;;;5.37;1.75;;;;;;;4.68;55.11;100232.16;4462984;31;34077;-81
2022/01/28 13:00:36;;;;;;;6.22;2.20;;;;;;;4.87;54.92;100219.84;4488232;31;34225;-81
2022/01/28 13:03:28;;;;;;;4.05;1.20;;;;;;;4.65;55.60;100229.97;4483804;31;34962;-80
2022/01/28 13:09:23;;;;;;;20.65;7.00;;;;;;;4.75;55.38;100243.63;4477903;31;34931;-82
2022/01/28 13:12:20;;;;;;;17.70;6.72;;;;;;;4.66;55.29;100237.03;4489936;31;33313;-82
2022/01/28 13:15:14;;;;;;;8.45;2.37;;;;;;;4.68;55.40;100219.41;4484262;31;34949;-83
2022/01/28 13:18:10;;;;;;;6.00;2.30;;;;;;;4.79;55.57;100252.91;4482767;31;35418;-82
2022/01/28 13:20:57;;;;;;;11.75;5.60;;;;;;;4.79;55.13;100224.94;4496620;31;33971;-82
2022/01/28 13:23:44;;;;;;;11.57;4.00;;;;;;;4.88;55.33;100232.34;4488515;31;35559;-82
2022/01/28 13:26:30;;;;;;;5.65;2.22;;;;;;;4.84;55.60;100233.94;4490575;31;34936;-80
2022/01/28 13:29:32;;;;;;;6.35;2.90;;;;;;;4.82;55.65;100230.66;4486903;31;34679;-80
2022/01/28 13:32:24;;;;;;;6.93;1.55;;;;;;;5.01;55.06;100216.69;4482942;31;34187;-82
2022/01/28 13:35:16;;;;;;;2.40;1.00;;;;;;;4.88;54.93;100228.81;4479865;31;34550;-78
2022/01/28 13:38:07;;;;;;;6.68;1.52;;;;;;;4.81;55.12;100223.59;4472242;31;35973;-82
2022/01/28 13:40:53;;;;;;;4.95;1.40;;;;;;;4.79;54.68;100198.59;4483711;31;34606;-81
2022/01/28 13:43:40;;;;;;;3.67;0.85;;;;;;;4.97;54.48;100210.97;4484224;31;34190;-79
2022/01/28 13:46:32;;;;;;;2.85;0.73;;;;;;;4.79;54.56;100209.47;4476342;31;36053;-78
2022/01/28 13:49:19;;;;;;;4.12;0.60;;;;;;;4.73;54.91;100210.50;4480454;31;34938;-80
2022/01/28 13:52:24;;;;;;;6.37;0.70;;;;;;;4.77;55.05;100210.78;4491553;31;34688;-79
2022/01/28 13:55:37;;;;;;;3.05;0.65;;;;;;;4.91;55.02;100218.25;4473496;31;35077;-78
2022/01/28 13:58:23;;;;;;;3.45;1.10;;;;;;;4.72;55.10;100214.28;4478497;31;35501;-79
2022/01/28 14:01:11;;;;;;;3.42;1.20;;;;;;;4.71;55.11;100213.47;4478735;31;34963;-79
2022/01/28 14:04:00;;;;;;;7.53;1.45;;;;;;;4.61;55.71;100218.81;4478096;31;35801;-83
2022/01/28 14:06:46;;;;;;;5.47;1.02;;;;;;;4.61;55.93;100229.66;4462175;31;35919;-79
2022/01/28 14:09:41;;;;;;;4.70;1.42;;;;;;;4.64;55.57;100228.31;4482169;31;35517;-80
2022/01/28 14:15:38;;;;;;;6.90;1.48;;;;;;;4.54;57.12;100252.66;4491210;31;34710;-81
2022/01/28 14:18:24;;;;;;;;;;;;;;;4.62;57.27;100241.34;4489515;31;34165;-84
2022/01/28 14:21:11;;;;;;;4.90;1.20;;;;;;;4.45;57.62;100261.25;4474861;31;35584;-82
2022/01/28 14:23:57;;;;;;;2.47;0.90;;;;;;;4.38;58.39;100274.19;4477518;31;35860;-82
2022/01/28 14:26:54;;;;;;;1.62;0.70;;;;;;;4.37;58.74;100272.56;4476954;31;34656;-85
2022/01/28 14:32:28;;;;;;;5.18;1.58;;;;;;;4.35;58.71;100273.88;4478120;31;34594;-83
2022/01/28 14:35:15;;;;;;;5.30;1.33;;;;;;;4.38;59.55;100279.62;4451773;31;35061;-82
2022/01/28 14:38:04;;;;;;;6.47;1.20;;;;;;;4.42;59.80;100288.91;4479105;31;34618;-82
2022/01/28 14:40:50;;;;;;;3.28;0.93;;;;;;;4.37;60.28;100291.56;4462132;31;34037;-79
2022/01/28 14:43:36;;;;;;;5.62;1.25;;;;;;;4.27;60.87;100291.44;4486202;31;34686;-83